sensor_id;sensor_type;location;lat;lon;timestamp;P1;durP1;ratioP1;P2;durP2;ratioP2
42590;SDS011;28218;53.342;-6.216;2022-08-19T00:01:48;11.93;;;2.45;;
42590;SDS011;28218;53.342;-6.216;2022-08-19T00:06:48;12.25;;;2.63;;
42590;SDS011;28218;53.342;-6.216;2022-08-19T00:09:17;12.02;;;2.53;;
42590;SDS011;28218;53.342;-6.216;2022-08-19T00:11:48;17.13;;;3.47;;
42590;SDS011;28218;53.342;-6.216;2022-08-19T00:14:17;16.52;;;3.00;;
42590;SDS011;28218;53.342;-6.216;2022-08-19T00:16:46;12.55;;;2.70;;
42590;SDS011;28218;53.342;-6.216;2022-08-19T00:19:15;16.38;;;3.45;;
42590;SDS011;28218;53.342;-6.216;2022-08-19T00:21:43;15.40;;;3.33;;
42590;SDS011;28218;53.342;-6.216;2022-08-19T00:24:13;21.52;;;3.35;;
42590;SDS011;28218;53.342;-6.216;2022-08-19T00:26:42;21.67;;;2.85;;
42590;SDS011;28218;53.342;-6.216;2022-08-19T00:29:14;18.15;;;3.58;;
42590;SDS011;28218;53.342;-6.216;2022-08-19T00:31:44;20.10;;;3.10;;
42590;SDS011;28218;53.342;-6.216;2022-08-19T00:34:16;21.63;;;2.92;;
42590;SDS011;28218;53.342;-6.216;2022-08-19T00:36:44;16.60;;;3.25;;
42590;SDS011;28218;53.342;-6.216;2022-08-19T00:39:13;16.05;;;2.70;;
42590;SDS011;28218;53.342;-6.216;2022-08-19T00:41:43;19.45;;;3.60;;
42590;SDS011;28218;53.342;-6.216;2022-08-19T00:44:16;22.08;;;3.55;;
42590;SDS011;28218;53.342;-6.216;2022-08-19T00:46:52;17.98;;;2.80;;
42590;SDS011;28218;53.342;-6.216;2022-08-19T00:49:25;23.67;;;4.40;;
42590;SDS011;28218;53.342;-6.216;2022-08-19T00:51:58;20.85;;;3.63;;
42590;SDS011;28218;53.342;-6.216;2022-08-19T00:54:29;14.15;;;3.33;;
42590;SDS011;28218;53.342;-6.216;2022-08-19T00:56:59;23.40;;;4.60;;
42590;SDS011;28218;53.342;-6.216;2022-08-19T00:59:30;17.90;;;3.13;;
42590;SDS011;28218;53.342;-6.216;2022-08-19T01:02:19;22.77;;;4.00;;
42590;SDS011;28218;53.342;-6.216;2022-08-19T01:04:47;18.13;;;2.80;;
42590;SDS011;28218;53.342;-6.216;2022-08-19T01:07:15;21.00;;;3.65;;
42590;SDS011;28218;53.342;-6.216;2022-08-19T01:09:45;20.33;;;3.30;;
42590;SDS011;28218;53.342;-6.216;2022-08-19T01:12:14;18.30;;;3.13;;
42590;SDS011;28218;53.342;-6.216;2022-08-19T01:14:45;27.90;;;3.92;;
42590;SDS011;28218;53.342;-6.216;2022-08-19T01:17:14;18.65;;;3.88;;
42590;SDS011;28218;53.342;-6.216;2022-08-19T01:19:43;17.90;;;3.00;;
42590;SDS011;28218;53.342;-6.216;2022-08-19T01:22:15;24.80;;;4.50;;
42590;SDS011;28218;53.342;-6.216;2022-08-19T01:24:58;23.20;;;5.80;;
42590;SDS011;28218;53.342;-6.216;2022-08-19T01:27:26;20.48;;;3.53;;
42590;SDS011;28218;53.342;-6.216;2022-08-19T01:30:10;17.15;;;2.83;;
42590;SDS011;28218;53.342;-6.216;2022-08-19T01:32:41;17.20;;;3.05;;
42590;SDS011;28218;53.342;-6.216;2022-08-19T01:35:10;20.70;;;4.00;;
42590;SDS011;28218;53.342;-6.216;2022-08-19T01:37:44;19.40;;;3.65;;
42590;SDS011;28218;53.342;-6.216;2022-08-19T01:40:15;22.83;;;3.00;;
42590;SDS011;28218;53.342;-6.216;2022-08-19T01:42:45;21.88;;;3.60;;
42590;SDS011;28218;53.342;-6.216;2022-08-19T01:45:15;31.70;;;6.30;;
42590;SDS011;28218;53.342;-6.216;2022-08-19T01:47:43;20.50;;;3.40;;
42590;SDS011;28218;53.342;-6.216;2022-08-19T01:50:28;22.25;;;3.50;;
42590;SDS011;28218;53.342;-6.216;2022-08-19T01:52:56;23.17;;;3.42;;
42590;SDS011;28218;53.342;-6.216;2022-08-19T01:55:33;18.10;;;3.40;;
42590;SDS011;28218;53.342;-6.216;2022-08-19T01:58:07;24.33;;;3.50;;
42590;SDS011;28218;53.342;-6.216;2022-08-19T02:00:39;21.80;;;4.35;;
42590;SDS011;28218;53.342;-6.216;2022-08-19T02:03:07;21.58;;;3.60;;
42590;SDS011;28218;53.342;-6.216;2022-08-19T02:05:38;25.63;;;3.90;;
42590;SDS011;28218;53.342;-6.216;2022-08-19T02:08:07;16.42;;;3.80;;
42590;SDS011;28218;53.342;-6.216;2022-08-19T02:10:39;15.73;;;3.53;;
42590;SDS011;28218;53.342;-6.216;2022-08-19T02:13:10;25.40;;;4.47;;
42590;SDS011;28218;53.342;-6.216;2022-08-19T02:15:39;18.95;;;3.55;;
42590;SDS011;28218;53.342;-6.216;2022-08-19T02:18:08;18.17;;;3.58;;
42590;SDS011;28218;53.342;-6.216;2022-08-19T02:20:37;17.58;;;3.33;;
42590;SDS011;28218;53.342;-6.216;2022-08-19T02:23:06;20.10;;;3.33;;
42590;SDS011;28218;53.342;-6.216;2022-08-19T02:25:43;19.67;;;4.00;;
42590;SDS011;28218;53.342;-6.216;2022-08-19T02:28:13;27.20;;;5.68;;
42590;SDS011;28218;53.342;-6.216;2022-08-19T02:30:45;20.60;;;3.25;;
42590;SDS011;28218;53.342;-6.216;2022-08-19T02:33:14;20.65;;;5.07;;
42590;SDS011;28218;53.342;-6.216;2022-08-19T02:35:44;21.48;;;3.88;;
42590;SDS011;28218;53.342;-6.216;2022-08-19T02:38:13;21.15;;;3.53;;
42590;SDS011;28218;53.342;-6.216;2022-08-19T02:40:56;24.35;;;3.55;;
42590;SDS011;28218;53.342;-6.216;2022-08-19T02:43:26;20.92;;;3.22;;
42590;SDS011;28218;53.342;-6.216;2022-08-19T02:45:59;30.65;;;3.88;;
42590;SDS011;28218;53.342;-6.216;2022-08-19T02:48:28;17.98;;;3.60;;
42590;SDS011;28218;53.342;-6.216;2022-08-19T02:50:59;21.53;;;2.97;;
42590;SDS011;28218;53.342;-6.216;2022-08-19T02:53:27;23.88;;;3.95;;
42590;SDS011;28218;53.342;-6.216;2022-08-19T02:55:57;16.48;;;3.05;;
42590;SDS011;28218;53.342;-6.216;2022-08-19T02:58:26;20.73;;;3.85;;
42590;SDS011;28218;53.342;-6.216;2022-08-19T03:00:55;16.60;;;3.42;;
42590;SDS011;28218;53.342;-6.216;2022-08-19T03:03:24;19.15;;;4.57;;
42590;SDS011;28218;53.342;-6.216;2022-08-19T03:06:02;16.13;;;2.67;;
42590;SDS011;28218;53.342;-6.216;2022-08-19T03:08:31;15.15;;;2.85;;
42590;SDS011;28218;53.342;-6.216;2022-08-19T03:11:01;20.45;;;2.58;;
42590;SDS011;28218;53.342;-6.216;2022-08-19T03:13:29;16.15;;;3.47;;
42590;SDS011;28218;53.342;-6.216;2022-08-19T03:15:58;25.05;;;3.33;;
42590;SDS011;28218;53.342;-6.216;2022-08-19T03:18:26;10.80;;;2.75;;
42590;SDS011;28218;53.342;-6.216;2022-08-19T03:20:54;19.70;;;3.58;;
42590;SDS011;28218;53.342;-6.216;2022-08-19T03:23:22;16.80;;;2.75;;
42590;SDS011;28218;53.342;-6.216;2022-08-19T03:25:51;14.85;;;3.10;;
42590;SDS011;28218;53.342;-6.216;2022-08-19T03:28:42;20.67;;;2.85;;
42590;SDS011;28218;53.342;-6.216;2022-08-19T03:31:17;20.05;;;3.30;;
42590;SDS011;28218;53.342;-6.216;2022-08-19T03:34:07;13.77;;;2.50;;
42590;SDS011;28218;53.342;-6.216;2022-08-19T03:36:37;15.60;;;3.00;;
42590;SDS011;28218;53.342;-6.216;2022-08-19T03:39:06;14.43;;;2.13;;
42590;SDS011;28218;53.342;-6.216;2022-08-19T03:41:36;13.63;;;1.83;;
42590;SDS011;28218;53.342;-6.216;2022-08-19T03:44:12;15.07;;;2.28;;
42590;SDS011;28218;53.342;-6.216;2022-08-19T03:46:44;11.90;;;1.95;;
42590;SDS011;28218;53.342;-6.216;2022-08-19T03:49:13;10.10;;;1.77;;
42590;SDS011;28218;53.342;-6.216;2022-08-19T03:51:44;17.48;;;2.42;;
42590;SDS011;28218;53.342;-6.216;2022-08-19T03:54:15;17.60;;;2.40;;
42590;SDS011;28218;53.342;-6.216;2022-08-19T03:59:17;8.77;;;2.60;;
42590;SDS011;28218;53.342;-6.216;2022-08-19T04:01:47;8.75;;;2.00;;
42590;SDS011;28218;53.342;-6.216;2022-08-19T04:04:15;14.48;;;2.20;;
42590;SDS011;28218;53.342;-6.216;2022-08-19T04:06:45;11.80;;;2.28;;
42590;SDS011;28218;53.342;-6.216;2022-08-19T04:09:14;8.93;;;2.25;;
42590;SDS011;28218;53.342;-6.216;2022-08-19T04:11:43;12.40;;;2.20;;
42590;SDS011;28218;53.342;-6.216;2022-08-19T04:14:15;12.27;;;1.88;;
42590;SDS011;28218;53.342;-6.216;2022-08-19T04:16:46;13.45;;;2.50;;
42590;SDS011;28218;53.342;-6.216;2022-08-19T04:19:16;18.13;;;2.08;;
42590;SDS011;28218;53.342;-6.216;2022-08-19T04:21:46;13.90;;;2.80;;
42590;SDS011;28218;53.342;-6.216;2022-08-19T04:24:16;11.70;;;2.70;;
42590;SDS011;28218;53.342;-6.216;2022-08-19T04:26:45;17.70;;;2.92;;
42590;SDS011;28218;53.342;-6.216;2022-08-19T04:29:15;10.40;;;2.40;;
42590;SDS011;28218;53.342;-6.216;2022-08-19T04:31:47;9.15;;;2.47;;
42590;SDS011;28218;53.342;-6.216;2022-08-19T04:34:17;18.77;;;2.35;;
42590;SDS011;28218;53.342;-6.216;2022-08-19T04:36:49;8.35;;;1.85;;
42590;SDS011;28218;53.342;-6.216;2022-08-19T04:39:19;7.75;;;2.30;;
42590;SDS011;28218;53.342;-6.216;2022-08-19T04:41:49;21.73;;;2.47;;
42590;SDS011;28218;53.342;-6.216;2022-08-19T04:44:35;10.68;;;1.65;;
42590;SDS011;28218;53.342;-6.216;2022-08-19T04:47:11;9.68;;;1.40;;
42590;SDS011;28218;53.342;-6.216;2022-08-19T04:49:40;14.48;;;2.42;;
42590;SDS011;28218;53.342;-6.216;2022-08-19T04:52:08;6.40;;;1.50;;
42590;SDS011;28218;53.342;-6.216;2022-08-19T04:54:36;15.45;;;1.45;;
42590;SDS011;28218;53.342;-6.216;2022-08-19T04:57:06;14.85;;;2.00;;
42590;SDS011;28218;53.342;-6.216;2022-08-19T04:59:38;17.45;;;2.22;;
42590;SDS011;28218;53.342;-6.216;2022-08-19T05:02:07;11.25;;;1.85;;
42590;SDS011;28218;53.342;-6.216;2022-08-19T05:04:36;12.88;;;2.20;;
42590;SDS011;28218;53.342;-6.216;2022-08-19T05:07:06;10.60;;;1.90;;
42590;SDS011;28218;53.342;-6.216;2022-08-19T05:09:34;10.45;;;1.70;;
42590;SDS011;28218;53.342;-6.216;2022-08-19T05:12:23;8.20;;;1.60;;
42590;SDS011;28218;53.342;-6.216;2022-08-19T05:14:56;17.50;;;3.47;;
42590;SDS011;28218;53.342;-6.216;2022-08-19T05:17:25;14.57;;;2.20;;
42590;SDS011;28218;53.342;-6.216;2022-08-19T05:20:00;9.48;;;1.88;;
42590;SDS011;28218;53.342;-6.216;2022-08-19T05:22:46;11.23;;;1.80;;
42590;SDS011;28218;53.342;-6.216;2022-08-19T05:25:16;9.93;;;1.90;;
42590;SDS011;28218;53.342;-6.216;2022-08-19T05:27:46;12.00;;;2.15;;
42590;SDS011;28218;53.342;-6.216;2022-08-19T05:30:17;15.30;;;2.10;;
42590;SDS011;28218;53.342;-6.216;2022-08-19T05:33:05;6.47;;;1.38;;
42590;SDS011;28218;53.342;-6.216;2022-08-19T05:35:36;8.98;;;1.63;;
42590;SDS011;28218;53.342;-6.216;2022-08-19T05:38:05;9.38;;;2.58;;
42590;SDS011;28218;53.342;-6.216;2022-08-19T05:40:33;13.52;;;2.45;;
42590;SDS011;28218;53.342;-6.216;2022-08-19T05:43:02;7.60;;;1.65;;
42590;SDS011;28218;53.342;-6.216;2022-08-19T05:45:37;8.68;;;1.90;;
42590;SDS011;28218;53.342;-6.216;2022-08-19T05:48:06;10.15;;;2.05;;
42590;SDS011;28218;53.342;-6.216;2022-08-19T05:50:37;12.18;;;2.00;;
42590;SDS011;28218;53.342;-6.216;2022-08-19T05:53:06;13.13;;;2.33;;
42590;SDS011;28218;53.342;-6.216;2022-08-19T05:55:35;10.27;;;1.80;;
42590;SDS011;28218;53.342;-6.216;2022-08-19T05:58:05;9.00;;;1.83;;
42590;SDS011;28218;53.342;-6.216;2022-08-19T06:00:36;17.88;;;2.20;;
42590;SDS011;28218;53.342;-6.216;2022-08-19T06:03:04;16.30;;;2.42;;
42590;SDS011;28218;53.342;-6.216;2022-08-19T06:05:39;8.85;;;1.55;;
42590;SDS011;28218;53.342;-6.216;2022-08-19T06:08:17;8.10;;;1.60;;
42590;SDS011;28218;53.342;-6.216;2022-08-19T06:11:11;8.27;;;1.50;;
42590;SDS011;28218;53.342;-6.216;2022-08-19T06:16:11;10.52;;;1.83;;
42590;SDS011;28218;53.342;-6.216;2022-08-19T06:18:39;16.20;;;2.33;;
42590;SDS011;28218;53.342;-6.216;2022-08-19T06:21:07;14.75;;;1.67;;
42590;SDS011;28218;53.342;-6.216;2022-08-19T06:23:35;8.75;;;1.60;;
42590;SDS011;28218;53.342;-6.216;2022-08-19T06:26:04;8.18;;;1.42;;
42590;SDS011;28218;53.342;-6.216;2022-08-19T06:28:32;6.60;;;1.55;;
42590;SDS011;28218;53.342;-6.216;2022-08-19T06:31:05;12.55;;;2.92;;
42590;SDS011;28218;53.342;-6.216;2022-08-19T06:33:35;9.93;;;1.25;;
42590;SDS011;28218;53.342;-6.216;2022-08-19T06:36:04;9.05;;;1.60;;
42590;SDS011;28218;53.342;-6.216;2022-08-19T06:38:32;5.65;;;1.38;;
42590;SDS011;28218;53.342;-6.216;2022-08-19T06:41:01;6.85;;;1.55;;
42590;SDS011;28218;53.342;-6.216;2022-08-19T06:43:33;6.10;;;1.20;;
42590;SDS011;28218;53.342;-6.216;2022-08-19T06:46:09;3.28;;;1.25;;
42590;SDS011;28218;53.342;-6.216;2022-08-19T06:48:41;8.93;;;2.03;;
42590;SDS011;28218;53.342;-6.216;2022-08-19T06:51:11;10.32;;;1.98;;
42590;SDS011;28218;53.342;-6.216;2022-08-19T06:53:44;8.68;;;1.20;;
42590;SDS011;28218;53.342;-6.216;2022-08-19T06:56:14;9.55;;;2.33;;
42590;SDS011;28218;53.342;-6.216;2022-08-19T06:58:43;8.13;;;1.35;;
42590;SDS011;28218;53.342;-6.216;2022-08-19T07:01:12;12.32;;;1.70;;
42590;SDS011;28218;53.342;-6.216;2022-08-19T07:03:42;7.80;;;1.45;;
42590;SDS011;28218;53.342;-6.216;2022-08-19T07:06:12;10.60;;;2.55;;
42590;SDS011;28218;53.342;-6.216;2022-08-19T07:09:04;6.03;;;1.30;;
42590;SDS011;28218;53.342;-6.216;2022-08-19T07:11:33;6.32;;;1.30;;
42590;SDS011;28218;53.342;-6.216;2022-08-19T07:14:01;4.90;;;1.20;;
42590;SDS011;28218;53.342;-6.216;2022-08-19T07:16:30;12.00;;;2.00;;
42590;SDS011;28218;53.342;-6.216;2022-08-19T07:19:00;8.27;;;1.30;;
42590;SDS011;28218;53.342;-6.216;2022-08-19T07:21:41;11.85;;;1.58;;
42590;SDS011;28218;53.342;-6.216;2022-08-19T07:24:10;7.80;;;1.50;;
42590;SDS011;28218;53.342;-6.216;2022-08-19T07:26:39;6.32;;;1.65;;
42590;SDS011;28218;53.342;-6.216;2022-08-19T07:29:10;11.80;;;1.58;;
42590;SDS011;28218;53.342;-6.216;2022-08-19T07:31:39;12.15;;;1.83;;
42590;SDS011;28218;53.342;-6.216;2022-08-19T07:34:11;9.48;;;1.33;;
42590;SDS011;28218;53.342;-6.216;2022-08-19T07:36:43;7.20;;;1.23;;
42590;SDS011;28218;53.342;-6.216;2022-08-19T07:39:12;6.50;;;1.40;;
42590;SDS011;28218;53.342;-6.216;2022-08-19T07:41:42;7.15;;;1.40;;
42590;SDS011;28218;53.342;-6.216;2022-08-19T07:44:11;5.57;;;1.10;;
42590;SDS011;28218;53.342;-6.216;2022-08-19T07:46:41;12.45;;;1.63;;
42590;SDS011;28218;53.342;-6.216;2022-08-19T07:49:17;4.35;;;0.95;;
42590;SDS011;28218;53.342;-6.216;2022-08-19T07:51:46;4.90;;;1.40;;
42590;SDS011;28218;53.342;-6.216;2022-08-19T07:54:16;7.22;;;1.33;;
42590;SDS011;28218;53.342;-6.216;2022-08-19T07:56:45;4.07;;;1.00;;
42590;SDS011;28218;53.342;-6.216;2022-08-19T07:59:17;6.75;;;1.20;;
42590;SDS011;28218;53.342;-6.216;2022-08-19T08:01:46;2.13;;;0.80;;
42590;SDS011;28218;53.342;-6.216;2022-08-19T08:04:18;3.75;;;0.75;;
42590;SDS011;28218;53.342;-6.216;2022-08-19T08:07:04;5.80;;;1.15;;
42590;SDS011;28218;53.342;-6.216;2022-08-19T08:09:57;4.28;;;0.80;;
42590;SDS011;28218;53.342;-6.216;2022-08-19T08:12:30;6.95;;;1.65;;
42590;SDS011;28218;53.342;-6.216;2022-08-19T08:15:03;4.97;;;1.27;;
42590;SDS011;28218;53.342;-6.216;2022-08-19T08:17:38;5.57;;;1.02;;
42590;SDS011;28218;53.342;-6.216;2022-08-19T08:20:19;7.47;;;1.70;;
42590;SDS011;28218;53.342;-6.216;2022-08-19T08:22:47;3.38;;;1.00;;
42590;SDS011;28218;53.342;-6.216;2022-08-19T08:25:33;9.35;;;1.40;;
42590;SDS011;28218;53.342;-6.216;2022-08-19T08:28:03;6.45;;;1.35;;
42590;SDS011;28218;53.342;-6.216;2022-08-19T08:30:31;9.38;;;1.55;;
42590;SDS011;28218;53.342;-6.216;2022-08-19T08:33:02;13.40;;;1.90;;
42590;SDS011;28218;53.342;-6.216;2022-08-19T08:35:32;8.32;;;1.17;;
42590;SDS011;28218;53.342;-6.216;2022-08-19T08:38:01;7.95;;;1.15;;
42590;SDS011;28218;53.342;-6.216;2022-08-19T08:40:32;8.90;;;1.05;;
42590;SDS011;28218;53.342;-6.216;2022-08-19T08:43:08;16.88;;;3.25;;
42590;SDS011;28218;53.342;-6.216;2022-08-19T08:45:48;4.53;;;1.38;;
42590;SDS011;28218;53.342;-6.216;2022-08-19T08:48:24;5.88;;;1.30;;
42590;SDS011;28218;53.342;-6.216;2022-08-19T08:51:02;5.90;;;1.35;;
42590;SDS011;28218;53.342;-6.216;2022-08-19T08:53:34;6.60;;;2.10;;
42590;SDS011;28218;53.342;-6.216;2022-08-19T08:56:08;6.30;;;1.60;;
42590;SDS011;28218;53.342;-6.216;2022-08-19T08:58:46;5.70;;;1.63;;
42590;SDS011;28218;53.342;-6.216;2022-08-19T09:01:22;6.22;;;1.67;;
42590;SDS011;28218;53.342;-6.216;2022-08-19T09:03:56;5.93;;;1.33;;
42590;SDS011;28218;53.342;-6.216;2022-08-19T09:06:32;11.10;;;1.58;;
42590;SDS011;28218;53.342;-6.216;2022-08-19T09:09:10;4.05;;;0.90;;
42590;SDS011;28218;53.342;-6.216;2022-08-19T09:11:52;5.32;;;1.02;;
42590;SDS011;28218;53.342;-6.216;2022-08-19T09:14:35;6.88;;;1.25;;
42590;SDS011;28218;53.342;-6.216;2022-08-19T09:17:17;4.78;;;1.30;;
42590;SDS011;28218;53.342;-6.216;2022-08-19T09:19:55;5.68;;;1.13;;
42590;SDS011;28218;53.342;-6.216;2022-08-19T09:22:28;1.00;;;0.63;;
42590;SDS011;28218;53.342;-6.216;2022-08-19T09:24:57;2.15;;;0.90;;
42590;SDS011;28218;53.342;-6.216;2022-08-19T09:27:25;2.53;;;1.17;;
42590;SDS011;28218;53.342;-6.216;2022-08-19T09:30:10;4.13;;;1.00;;
42590;SDS011;28218;53.342;-6.216;2022-08-19T09:32:42;3.10;;;1.00;;
42590;SDS011;28218;53.342;-6.216;2022-08-19T09:35:11;9.40;;;1.35;;
42590;SDS011;28218;53.342;-6.216;2022-08-19T09:37:42;2.88;;;1.17;;
42590;SDS011;28218;53.342;-6.216;2022-08-19T09:40:11;6.75;;;1.25;;
42590;SDS011;28218;53.342;-6.216;2022-08-19T09:42:41;6.20;;;1.30;;
42590;SDS011;28218;53.342;-6.216;2022-08-19T09:45:16;10.07;;;1.20;;
42590;SDS011;28218;53.342;-6.216;2022-08-19T09:47:48;5.85;;;1.30;;
42590;SDS011;28218;53.342;-6.216;2022-08-19T09:50:19;5.85;;;1.70;;
42590;SDS011;28218;53.342;-6.216;2022-08-19T09:52:50;8.02;;;1.55;;
42590;SDS011;28218;53.342;-6.216;2022-08-19T09:55:24;4.70;;;1.27;;
42590;SDS011;28218;53.342;-6.216;2022-08-19T09:57:57;8.68;;;1.40;;
42590;SDS011;28218;53.342;-6.216;2022-08-19T10:00:27;8.73;;;1.52;;
42590;SDS011;28218;53.342;-6.216;2022-08-19T10:02:56;10.32;;;1.88;;
42590;SDS011;28218;53.342;-6.216;2022-08-19T10:05:24;8.93;;;1.20;;
42590;SDS011;28218;53.342;-6.216;2022-08-19T10:08:16;4.55;;;0.98;;
42590;SDS011;28218;53.342;-6.216;2022-08-19T10:10:46;6.05;;;1.38;;
42590;SDS011;28218;53.342;-6.216;2022-08-19T10:13:15;5.32;;;1.30;;
42590;SDS011;28218;53.342;-6.216;2022-08-19T10:15:50;6.72;;;1.55;;
42590;SDS011;28218;53.342;-6.216;2022-08-19T10:18:21;6.25;;;1.25;;
42590;SDS011;28218;53.342;-6.216;2022-08-19T10:20:52;8.38;;;1.80;;
42590;SDS011;28218;53.342;-6.216;2022-08-19T10:23:31;8.82;;;1.27;;
42590;SDS011;28218;53.342;-6.216;2022-08-19T10:26:00;3.28;;;1.20;;
42590;SDS011;28218;53.342;-6.216;2022-08-19T10:28:29;4.43;;;1.17;;
42590;SDS011;28218;53.342;-6.216;2022-08-19T10:30:57;9.25;;;1.10;;
42590;SDS011;28218;53.342;-6.216;2022-08-19T10:33:26;5.88;;;1.13;;
42590;SDS011;28218;53.342;-6.216;2022-08-19T10:36:16;4.32;;;1.23;;
42590;SDS011;28218;53.342;-6.216;2022-08-19T10:38:48;7.70;;;1.30;;
42590;SDS011;28218;53.342;-6.216;2022-08-19T10:41:23;5.07;;;1.00;;
42590;SDS011;28218;53.342;-6.216;2022-08-19T10:46:29;3.63;;;0.80;;
42590;SDS011;28218;53.342;-6.216;2022-08-19T10:48:59;3.03;;;1.20;;
42590;SDS011;28218;53.342;-6.216;2022-08-19T10:51:28;6.20;;;1.48;;
42590;SDS011;28218;53.342;-6.216;2022-08-19T10:54:25;8.40;;;2.00;;
42590;SDS011;28218;53.342;-6.216;2022-08-19T10:57:14;6.50;;;1.27;;
42590;SDS011;28218;53.342;-6.216;2022-08-19T10:59:42;6.55;;;1.15;;
42590;SDS011;28218;53.342;-6.216;2022-08-19T11:02:10;10.05;;;1.55;;
42590;SDS011;28218;53.342;-6.216;2022-08-19T11:04:39;6.05;;;1.58;;
42590;SDS011;28218;53.342;-6.216;2022-08-19T11:07:08;8.27;;;1.67;;
42590;SDS011;28218;53.342;-6.216;2022-08-19T11:09:40;5.95;;;1.58;;
42590;SDS011;28218;53.342;-6.216;2022-08-19T11:14:39;10.68;;;1.50;;
42590;SDS011;28218;53.342;-6.216;2022-08-19T11:17:07;6.32;;;1.33;;
42590;SDS011;28218;53.342;-6.216;2022-08-19T11:19:37;6.93;;;1.65;;
42590;SDS011;28218;53.342;-6.216;2022-08-19T11:22:06;6.47;;;1.42;;
42590;SDS011;28218;53.342;-6.216;2022-08-19T11:24:41;3.15;;;1.48;;
42590;SDS011;28218;53.342;-6.216;2022-08-19T11:27:09;7.22;;;1.40;;
42590;SDS011;28218;53.342;-6.216;2022-08-19T11:29:38;4.70;;;1.45;;
42590;SDS011;28218;53.342;-6.216;2022-08-19T11:32:07;3.42;;;1.20;;
42590;SDS011;28218;53.342;-6.216;2022-08-19T11:34:37;6.35;;;1.63;;
42590;SDS011;28218;53.342;-6.216;2022-08-19T11:37:05;2.83;;;1.15;;
42590;SDS011;28218;53.342;-6.216;2022-08-19T11:39:35;3.80;;;1.45;;
42590;SDS011;28218;53.342;-6.216;2022-08-19T11:42:06;12.77;;;1.90;;
42590;SDS011;28218;53.342;-6.216;2022-08-19T11:44:48;7.47;;;1.38;;
42590;SDS011;28218;53.342;-6.216;2022-08-19T11:47:17;4.47;;;1.55;;
42590;SDS011;28218;53.342;-6.216;2022-08-19T11:49:46;6.85;;;1.40;;
42590;SDS011;28218;53.342;-6.216;2022-08-19T11:52:14;12.95;;;2.10;;
42590;SDS011;28218;53.342;-6.216;2022-08-19T11:54:42;7.82;;;2.05;;
42590;SDS011;28218;53.342;-6.216;2022-08-19T11:57:12;6.60;;;1.63;;
42590;SDS011;28218;53.342;-6.216;2022-08-19T11:59:47;5.53;;;1.90;;
42590;SDS011;28218;53.342;-6.216;2022-08-19T12:02:16;10.20;;;1.92;;
42590;SDS011;28218;53.342;-6.216;2022-08-19T12:04:45;11.45;;;2.30;;
42590;SDS011;28218;53.342;-6.216;2022-08-19T12:07:13;9.98;;;1.85;;
42590;SDS011;28218;53.342;-6.216;2022-08-19T12:09:42;10.95;;;2.28;;
42590;SDS011;28218;53.342;-6.216;2022-08-19T12:12:12;9.88;;;2.22;;
42590;SDS011;28218;53.342;-6.216;2022-08-19T12:14:40;11.35;;;2.13;;
42590;SDS011;28218;53.342;-6.216;2022-08-19T12:17:09;9.07;;;2.40;;
42590;SDS011;28218;53.342;-6.216;2022-08-19T12:19:39;9.27;;;2.17;;
42590;SDS011;28218;53.342;-6.216;2022-08-19T12:22:07;6.75;;;2.00;;
42590;SDS011;28218;53.342;-6.216;2022-08-19T12:24:35;12.95;;;2.53;;
42590;SDS011;28218;53.342;-6.216;2022-08-19T12:27:03;6.95;;;1.90;;
42590;SDS011;28218;53.342;-6.216;2022-08-19T12:29:39;7.70;;;1.98;;
42590;SDS011;28218;53.342;-6.216;2022-08-19T12:32:08;9.20;;;1.75;;
42590;SDS011;28218;53.342;-6.216;2022-08-19T12:34:38;5.75;;;1.98;;
42590;SDS011;28218;53.342;-6.216;2022-08-19T12:37:07;8.48;;;1.83;;
42590;SDS011;28218;53.342;-6.216;2022-08-19T12:39:36;11.57;;;1.83;;
42590;SDS011;28218;53.342;-6.216;2022-08-19T12:42:07;8.45;;;1.90;;
42590;SDS011;28218;53.342;-6.216;2022-08-19T12:44:36;13.90;;;2.70;;
42590;SDS011;28218;53.342;-6.216;2022-08-19T12:47:10;7.82;;;1.50;;
42590;SDS011;28218;53.342;-6.216;2022-08-19T12:49:41;8.25;;;2.40;;
42590;SDS011;28218;53.342;-6.216;2022-08-19T12:52:20;22.35;;;2.35;;
42590;SDS011;28218;53.342;-6.216;2022-08-19T12:54:50;7.85;;;2.10;;
42590;SDS011;28218;53.342;-6.216;2022-08-19T12:57:21;9.20;;;3.38;;
42590;SDS011;28218;53.342;-6.216;2022-08-19T12:59:58;65.50;;;4.93;;
42590;SDS011;28218;53.342;-6.216;2022-08-19T13:02:31;6.68;;;2.08;;
42590;SDS011;28218;53.342;-6.216;2022-08-19T13:05:04;11.93;;;2.15;;
42590;SDS011;28218;53.342;-6.216;2022-08-19T13:07:34;14.57;;;2.78;;
42590;SDS011;28218;53.342;-6.216;2022-08-19T13:10:04;10.43;;;2.00;;
42590;SDS011;28218;53.342;-6.216;2022-08-19T13:12:33;9.02;;;2.80;;
42590;SDS011;28218;53.342;-6.216;2022-08-19T13:15:02;9.13;;;1.83;;
42590;SDS011;28218;53.342;-6.216;2022-08-19T13:17:38;12.07;;;2.03;;
42590;SDS011;28218;53.342;-6.216;2022-08-19T13:20:08;10.93;;;2.63;;
42590;SDS011;28218;53.342;-6.216;2022-08-19T13:22:37;9.52;;;2.55;;
42590;SDS011;28218;53.342;-6.216;2022-08-19T13:25:07;8.73;;;2.08;;
42590;SDS011;28218;53.342;-6.216;2022-08-19T13:27:36;9.55;;;2.30;;
42590;SDS011;28218;53.342;-6.216;2022-08-19T13:30:07;11.27;;;2.38;;
42590;SDS011;28218;53.342;-6.216;2022-08-19T13:33:10;7.10;;;1.70;;
42590;SDS011;28218;53.342;-6.216;2022-08-19T13:35:44;6.43;;;2.20;;
42590;SDS011;28218;53.342;-6.216;2022-08-19T13:38:16;10.05;;;2.15;;
42590;SDS011;28218;53.342;-6.216;2022-08-19T13:43:16;8.27;;;2.30;;
42590;SDS011;28218;53.342;-6.216;2022-08-19T13:45:49;7.60;;;1.77;;
42590;SDS011;28218;53.342;-6.216;2022-08-19T13:48:24;7.50;;;1.92;;
42590;SDS011;28218;53.342;-6.216;2022-08-19T13:50:54;8.20;;;1.90;;
42590;SDS011;28218;53.342;-6.216;2022-08-19T13:53:22;4.90;;;2.33;;
42590;SDS011;28218;53.342;-6.216;2022-08-19T13:55:51;7.05;;;1.88;;
42590;SDS011;28218;53.342;-6.216;2022-08-19T13:58:20;5.10;;;2.10;;
42590;SDS011;28218;53.342;-6.216;2022-08-19T14:00:48;4.03;;;1.55;;
42590;SDS011;28218;53.342;-6.216;2022-08-19T14:03:17;4.85;;;1.90;;
42590;SDS011;28218;53.342;-6.216;2022-08-19T14:05:47;8.27;;;1.70;;
42590;SDS011;28218;53.342;-6.216;2022-08-19T14:08:15;9.90;;;2.15;;
42590;SDS011;28218;53.342;-6.216;2022-08-19T14:10:44;5.45;;;1.50;;
42590;SDS011;28218;53.342;-6.216;2022-08-19T14:13:14;4.97;;;1.70;;
42590;SDS011;28218;53.342;-6.216;2022-08-19T14:15:43;11.45;;;1.73;;
42590;SDS011;28218;53.342;-6.216;2022-08-19T14:18:13;5.28;;;1.50;;
42590;SDS011;28218;53.342;-6.216;2022-08-19T14:20:43;4.32;;;1.63;;
42590;SDS011;28218;53.342;-6.216;2022-08-19T14:23:13;8.65;;;1.90;;
42590;SDS011;28218;53.342;-6.216;2022-08-19T14:25:42;3.55;;;1.10;;
42590;SDS011;28218;53.342;-6.216;2022-08-19T14:28:10;5.53;;;1.50;;
42590;SDS011;28218;53.342;-6.216;2022-08-19T14:30:39;9.10;;;1.50;;
42590;SDS011;28218;53.342;-6.216;2022-08-19T14:33:07;6.22;;;1.65;;
42590;SDS011;28218;53.342;-6.216;2022-08-19T14:35:36;5.80;;;1.60;;
42590;SDS011;28218;53.342;-6.216;2022-08-19T14:38:05;5.32;;;2.00;;
42590;SDS011;28218;53.342;-6.216;2022-08-19T14:40:44;4.18;;;1.40;;
42590;SDS011;28218;53.342;-6.216;2022-08-19T14:43:12;3.70;;;1.85;;
42590;SDS011;28218;53.342;-6.216;2022-08-19T14:45:43;4.73;;;1.20;;
42590;SDS011;28218;53.342;-6.216;2022-08-19T14:48:12;4.38;;;1.08;;
42590;SDS011;28218;53.342;-6.216;2022-08-19T14:50:44;7.80;;;1.33;;
42590;SDS011;28218;53.342;-6.216;2022-08-19T14:53:13;3.88;;;1.67;;
42590;SDS011;28218;53.342;-6.216;2022-08-19T14:55:45;4.43;;;1.60;;
42590;SDS011;28218;53.342;-6.216;2022-08-19T14:58:14;5.47;;;1.65;;
42590;SDS011;28218;53.342;-6.216;2022-08-19T15:00:56;8.18;;;1.10;;
42590;SDS011;28218;53.342;-6.216;2022-08-19T15:03:25;6.80;;;1.65;;
42590;SDS011;28218;53.342;-6.216;2022-08-19T15:05:53;4.18;;;1.02;;
42590;SDS011;28218;53.342;-6.216;2022-08-19T15:08:24;4.07;;;1.17;;
42590;SDS011;28218;53.342;-6.216;2022-08-19T15:10:55;5.85;;;1.17;;